Time;durP1;ratioP1;P1;durP2;ratioP2;P2;SDS_P1;SDS_P2;PMS_P1;PMS_P2;Temp;Humidity;BMP_temperature;BMP_pressure;BME280_temperature;BME280_humidity;BME280_pressure;Samples;Min_cycle;Max_cycle;Signal;HPM_P1;HPM_P2
2022/10/05 00:00:55;;;;;;;7.23;4.53;;;15.10;99.90;;;;;;5027684;28;20470;-83
2022/10/05 00:03:29;;;;;;;5.10;4.60;;;15.10;99.90;;;;;;5026433;28;20450;-83
2022/10/05 00:05:56;;;;;;;5.30;4.73;;;15.00;99.90;;;;;;5011423;28;20493;-82
2022/10/05 00:08:28;;;;;;;6.33;5.43;;;15.30;99.90;;;;;;5020820;28;20449;-81
2022/10/05 00:10:55;;;;;;;5.27;4.77;;;15.30;99.90;;;;;;5010770;28;20446;-83
2022/10/05 00:13:24;;;;;;;5.27;4.77;;;15.20;99.90;;;;;;5028345;28;20473;-80
2022/10/05 00:16:09;;;;;;;8.40;4.73;;;15.10;99.90;;;;;;5009218;28;20483;-82
2022/10/05 00:18:37;;;;;;;6.10;5.00;;;15.10;99.90;;;;;;5009694;28;20466;-83
2022/10/05 00:21:25;;;;;;;7.67;5.20;;;14.90;99.90;;;;;;5022572;28;20446;-84
2022/10/05 00:23:55;;;;;;;6.50;5.77;;;14.70;99.90;;;;;;5023029;28;20489;-82
2022/10/05 00:26:24;;;;;;;6.30;5.63;;;14.70;99.90;;;;;;5006393;28;20450;-84
2022/10/05 00:28:52;;;;;;;6.67;5.10;;;14.60;99.90;;;;;;4996797;28;20451;-82
2022/10/05 00:31:20;;;;;;;6.57;5.97;;;14.50;99.90;;;;;;4997923;28;20458;-83
2022/10/05 00:33:47;;;;;;;8.60;5.27;;;14.70;99.90;;;;;;5014128;28;20477;-85
2022/10/05 00:36:14;;;;;;;8.37;5.83;;;14.60;99.90;;;;;;5011004;28;20538;-81
2022/10/05 00:38:42;;;;;;;8.97;5.67;;;14.70;99.90;;;;;;5013603;28;20477;-83
2022/10/05 00:41:36;;;;;;;5.70;5.20;;;14.60;99.90;;;;;;5016111;28;20447;-83
2022/10/05 00:44:28;;;;;;;7.77;5.83;;;14.50;99.90;;;;;;4984513;28;20500;-84
2022/10/05 00:47:18;;;;;;;7.00;5.60;;;14.30;99.90;;;;;;5027086;28;20450;-84
2022/10/05 00:50:21;;;;;;;9.03;5.33;;;14.50;99.90;;;;;;5023457;28;20459;-83
2022/10/05 00:53:17;;;;;;;5.67;5.07;;;14.60;99.90;;;;;;5012540;28;20478;-83
2022/10/05 00:56:14;;;;;;;7.23;5.43;;;14.50;99.90;;;;;;5007040;28;20466;-83
2022/10/05 00:59:08;;;;;;;7.43;5.77;;;14.40;99.90;;;;;;5018008;28;20549;-82
2022/10/05 01:02:01;;;;;;;6.47;5.27;;;14.50;99.90;;;;;;4996915;28;20470;-83
2022/10/05 01:04:43;;;;;;;5.77;5.00;;;14.30;99.90;;;;;;5000380;28;20474;-82
2022/10/05 01:07:16;;;;;;;6.00;5.20;;;14.40;99.90;;;;;;5017490;28;20494;-82
2022/10/05 01:09:58;;;;;;;9.63;5.40;;;14.30;99.90;;;;;;5018289;28;20474;-82
2022/10/05 01:12:58;;;;;;;7.10;5.60;;;14.20;99.90;;;;;;5008883;28;20561;-81
2022/10/05 01:15:34;;;;;;;6.73;5.57;;;14.20;99.90;;;;;;5019907;28;20523;-83
2022/10/05 01:18:25;;;;;;;6.67;4.90;;;14.10;99.90;;;;;;5012919;28;20455;-82
2022/10/05 01:21:05;;;;;;;7.37;5.10;;;14.30;99.90;;;;;;5015523;28;20493;-83
2022/10/05 01:24:01;;;;;;;6.47;5.77;;;14.30;99.90;;;;;;5004293;28;20784;-83
2022/10/05 01:26:45;;;;;;;6.97;5.70;;;14.20;99.90;;;;;;5009009;28;20455;-82
2022/10/05 01:29:17;;;;;;;8.03;5.97;;;14.10;99.90;;;;;;5025542;28;20460;-82
2022/10/05 01:31:55;;;;;;;6.27;5.60;;;14.10;99.90;;;;;;5016506;28;20932;-83
2022/10/05 01:34:22;;;;;;;8.07;5.97;;;14.30;99.90;;;;;;5014988;28;20462;-82
2022/10/05 01:37:16;;;;;;;6.33;5.70;;;14.40;99.90;;;;;;5022264;28;20474;-84
2022/10/05 01:40:04;;;;;;;9.50;6.27;;;14.30;99.90;;;;;;5024591;28;20907;-82
2022/10/05 01:43:03;;;;;;;7.10;5.40;;;14.20;99.90;;;;;;5025495;28;20472;-83
2022/10/05 01:45:57;;;;;;;5.50;4.93;;;14.20;99.90;;;;;;5016626;28;20470;-84
2022/10/05 01:48:34;;;;;;;7.40;5.40;;;14.20;99.90;;;;;;5002412;28;20453;-81
2022/10/05 01:51:12;;;;;;;6.70;4.83;;;14.20;99.90;;;;;;4995322;28;20535;-80
2022/10/05 01:54:06;;;;;;;7.60;5.33;;;14.10;99.90;;;;;;5021077;28;20504;-82
2022/10/05 01:56:49;;;;;;;7.07;6.03;;;14.10;99.90;;;;;;5014750;28;21003;-82
2022/10/05 01:59:29;;;;;;;5.87;5.27;;;14.10;99.90;;;;;;5013399;28;20490;-83
2022/10/05 02:02:10;;;;;;;5.97;5.13;;;14.00;99.90;;;;;;4994141;28;20438;-82
2022/10/05 02:04:52;;;;;;;6.30;5.70;;;13.80;99.90;;;;;;5010249;28;20482;-82
2022/10/05 02:07:39;;;;;;;7.90;5.10;;;14.00;99.90;;;;;;5021515;28;20564;-81
2022/10/05 02:10:35;;;;;;;6.40;5.40;;;13.90;99.90;;;;;;5019957;28;20512;-84
2022/10/05 02:13:29;;;;;;;8.10;5.57;;;14.00;99.90;;;;;;5012746;28;20458;-83
2022/10/05 02:16:03;;;;;;;6.13;5.47;;;13.90;99.90;;;;;;5023883;28;20445;-83
2022/10/05 02:18:39;;;;;;;6.73;5.43;;;14.00;99.90;;;;;;5017180;28;20461;-83
2022/10/05 02:21:07;;;;;;;6.87;6.23;;;13.90;99.90;;;;;;5005445;28;20433;-83
2022/10/05 02:23:39;;;;;;;9.00;6.07;;;13.90;99.90;;;;;;5023915;28;20454;-84
2022/10/05 02:26:07;;;;;;;6.67;5.50;;;13.80;99.90;;;;;;5007050;28;20528;-81
2022/10/05 02:28:52;;;;;;;7.97;5.87;;;13.90;99.90;;;;;;5033413;28;20518;-83
2022/10/05 02:31:23;;;;;;;6.67;6.00;;;13.80;99.90;;;;;;5022467;28;20465;-84
2022/10/05 02:33:50;;;;;;;7.20;6.10;;;13.80;99.90;;;;;;5024091;28;20524;-82
2022/10/05 02:36:33;;;;;;;10.03;6.30;;;13.60;99.90;;;;;;5015231;28;20875;-83
2022/10/05 02:39:23;;;;;;;7.53;6.07;;;13.50;99.90;;;;;;5032490;28;20434;-82
2022/10/05 02:42:05;;;;;;;6.37;5.77;;;13.50;99.90;;;;;;5025494;28;20480;-83
2022/10/05 02:44:57;;;;;;;6.60;5.27;;;13.40;99.90;;;;;;5007190;28;20466;-82
2022/10/05 02:47:36;;;;;;;7.77;5.60;;;13.60;99.90;;;;;;5009211;28;21028;-82
2022/10/05 02:50:25;;;;;;;7.47;5.83;;;13.50;99.90;;;;;;5016056;28;20486;-84
2022/10/05 02:52:59;;;;;;;6.33;5.60;;;13.70;99.90;;;;;;5021926;28;20473;-83
2022/10/05 02:55:36;;;;;;;7.77;5.53;;;13.80;99.90;;;;;;5015804;28;20475;-83
2022/10/05 02:58:17;;;;;;;6.40;5.80;;;13.60;99.90;;;;;;5025529;28;20486;-84
2022/10/05 03:00:49;;;;;;;8.23;5.80;;;13.60;99.90;;;;;;5000004;28;20956;-84
2022/10/05 03:03:28;;;;;;;6.60;5.60;;;13.60;99.90;;;;;;5003607;28;20537;-84
2022/10/05 03:06:13;;;;;;;6.57;5.83;;;13.60;99.90;;;;;;5002341;28;20603;-83
2022/10/05 03:09:14;;;;;;;9.00;6.30;;;13.50;99.90;;;;;;5015531;28;20489;-80
2022/10/05 03:11:46;;;;;;;8.60;5.30;;;13.30;99.90;;;;;;4972027;28;20453;-83
2022/10/05 03:14:22;;;;;;;6.73;5.47;;;13.50;99.90;;;;;;5021099;28;20474;-82
2022/10/05 03:16:54;;;;;;;6.53;5.93;;;13.50;99.90;;;;;;5018705;28;21259;-84
2022/10/05 03:19:40;;;;;;;7.50;5.87;;;13.40;99.90;;;;;;5008874;28;20529;-82
2022/10/05 03:22:37;;;;;;;5.70;5.20;;;13.30;99.90;;;;;;5027480;28;20504;-83
2022/10/05 03:25:16;;;;;;;6.67;5.90;;;13.30;99.90;;;;;;5004937;28;20490;-83
2022/10/05 03:28:03;;;;;;;5.70;5.10;;;13.50;99.90;;;;;;5014392;28;20450;-83
2022/10/05 03:30:40;;;;;;;6.90;5.00;;;13.40;99.90;;;;;;5003255;28;20520;-81
2022/10/05 03:33:14;;;;;;;6.93;5.63;;;13.50;99.90;;;;;;5017646;28;20451;-83
2022/10/05 03:36:00;;;;;;;6.83;5.73;;;13.60;99.90;;;;;;5026785;28;20465;-84
2022/10/05 03:38:46;;;;;;;6.13;5.17;;;13.60;99.90;;;;;;5024939;28;20486;-84
2022/10/05 03:41:52;;;;;;;5.20;4.70;;;13.40;99.90;;;;;;5035678;28;20438;-82
2022/10/05 03:44:40;;;;;;;7.00;6.00;;;13.50;99.90;;;;;;4995691;28;20479;-83
2022/10/05 03:47:07;;;;;;;6.27;5.63;;;13.60;99.90;;;;;;5029866;28;20489;-83
2022/10/05 03:50:03;;;;;;;7.10;6.47;;;13.60;99.90;;;;;;5021997;28;20528;-84
2022/10/05 03:52:43;;;;;;;6.73;6.03;;;13.60;99.90;;;;;;5001118;28;20484;-84
2022/10/05 03:55:23;;;;;;;7.87;6.50;;;13.60;99.90;;;;;;5018184;28;20467;-84
2022/10/05 03:57:52;;;;;;;8.70;6.53;;;13.50;99.90;;;;;;5017056;28;20482;-85
2022/10/05 04:00:22;;;;;;;7.30;6.27;;;13.60;99.90;;;;;;5020595;28;20509;-85
2022/10/05 04:03:14;;;;;;;9.07;6.27;;;13.60;99.90;;;;;;5019710;28;20490;-83
2022/10/05 04:06:16;;;;;;;8.07;6.43;;;13.50;99.90;;;;;;5018448;28;20549;-84
2022/10/05 04:09:04;;;;;;;7.23;6.53;;;13.50;99.90;;;;;;4974167;28;20486;-84
2022/10/05 04:11:37;;;;;;;7.27;6.50;;;13.60;99.90;;;;;;5003897;28;20564;-83
2022/10/05 04:14:11;;;;;;;6.90;6.20;;;13.60;99.90;;;;;;5003551;28;20470;-84
2022/10/05 04:16:43;;;;;;;7.70;6.90;;;13.60;99.90;;;;;;5002724;28;20473;-83
2022/10/05 04:19:22;;;;;;;6.33;5.60;;;13.40;99.90;;;;;;5018907;28;20439;-83
2022/10/05 04:21:58;;;;;;;7.30;6.10;;;13.50;99.90;;;;;;5019189;28;20478;-83
2022/10/05 04:24:33;;;;;;;8.10;6.17;;;13.40;99.90;;;;;;4992575;28;20481;-83
2022/10/05 04:27:09;;;;;;;7.07;6.37;;;13.30;99.90;;;;;;5015073;28;20497;-82
2022/10/05 04:29:52;;;;;;;9.17;7.17;;;13.10;99.90;;;;;;5013600;28;20474;-83
2022/10/05 04:32:30;;;;;;;6.93;6.17;;;13.10;99.90;;;;;;5019007;28;20450;-82
2022/10/05 04:34:59;;;;;;;8.03;6.40;;;13.00;99.90;;;;;;5002682;28;20470;-83
2022/10/05 04:37:26;;;;;;;9.03;6.23;;;13.00;99.90;;;;;;5011947;28;20509;-84
2022/10/05 04:40:14;;;;;;;7.33;6.50;;;13.00;99.90;;;;;;5023709;28;20442;-79
2022/10/05 04:43:14;;;;;;;7.70;6.30;;;13.10;99.90;;;;;;5021962;28;20451;-84
2022/10/05 04:45:57;;;;;;;13.30;6.80;;;13.00;99.90;;;;;;5019794;28;20500;-81
2022/10/05 04:48:50;;;;;;;11.40;6.70;;;13.10;99.90;;;;;;5008561;28;20934;-83
2022/10/05 04:51:45;;;;;;;9.60;6.67;;;13.20;99.90;;;;;;5011296;28;20478;-82
2022/10/05 04:54:56;;;;;;;8.60;6.17;;;13.20;99.90;;;;;;4992971;28;20467;-84
2022/10/05 04:57:31;;;;;;;10.47;6.57;;;13.30;99.90;;;;;;5010728;28;20569;-83
2022/10/05 05:00:20;;;;;;;7.20;6.30;;;13.40;99.90;;;;;;5007452;28;20483;-84
2022/10/05 05:03:02;;;;;;;8.40;7.13;;;13.30;99.90;;;;;;5018835;28;20450;-82
2022/10/05 05:05:33;;;;;;;10.17;6.90;;;13.40;99.90;;;;;;5013175;28;20481;-81
2022/10/05 05:08:08;;;;;;;9.00;6.40;;;13.50;99.90;;;;;;5011682;28;21604;-84
2022/10/05 05:11:01;;;;;;;8.17;6.63;;;13.60;99.90;;;;;;5023435;28;20457;-83
2022/10/05 05:13:59;;;;;;;10.70;7.00;;;13.60;99.90;;;;;;5024513;28;20469;-84
2022/10/05 05:16:37;;;;;;;7.77;6.13;;;13.60;99.90;;;;;;5020487;28;20493;-83
2022/10/05 05:19:22;;;;;;;10.03;6.90;;;13.60;99.90;;;;;;5000083;28;20482;-84
2022/10/05 05:21:52;;;;;;;8.53;7.73;;;13.60;99.90;;;;;;5019089;28;20493;-84
2022/10/05 05:24:26;;;;;;;8.70;6.63;;;13.70;99.90;;;;;;5023841;28;20501;-82
2022/10/05 05:27:23;;;;;;;8.73;5.80;;;13.60;99.90;;;;;;5020680;28;20474;-83
2022/10/05 05:30:17;;;;;;;10.93;7.30;;;13.50;99.90;;;;;;5021439;28;20431;-82
2022/10/05 05:33:09;;;;;;;10.13;7.37;;;13.40;99.90;;;;;;5029476;28;20457;-84
2022/10/05 05:36:07;;;;;;;12.00;7.37;;;13.40;99.90;;;;;;5013179;28;20530;-85
2022/10/05 05:38:39;;;;;;;8.60;6.40;;;13.30;99.90;;;;;;5027218;28;20470;-84
2022/10/05 05:41:36;;;;;;;7.10;6.40;;;13.30;99.90;;;;;;5022099;28;20545;-83
2022/10/05 05:44:12;;;;;;;8.27;6.57;;;13.40;99.90;;;;;;5005443;28;21007;-82
2022/10/05 05:46:46;;;;;;;11.13;9.00;;;13.50;99.90;;;;;;5008328;28;20442;-84
2022/10/05 05:49:53;;;;;;;11.40;7.90;;;13.50;99.90;;;;;;5002288;28;20451;-82
2022/10/05 05:52:33;;;;;;;7.83;7.03;;;13.50;99.90;;;;;;5013585;28;20490;-82
2022/10/05 05:55:24;;;;;;;11.77;8.30;;;13.60;99.90;;;;;;5019171;28;20486;-82
2022/10/05 05:58:17;;;;;;;8.50;6.87;;;13.60;99.90;;;;;;5013149;28;20485;-81
2022/10/05 06:00:56;;;;;;;7.93;7.13;;;13.60;99.90;;;;;;4999217;28;20474;-83
2022/10/05 06:03:47;;;;;;;10.20;7.37;;;13.50;99.90;;;;;;5000172;28;20450;-83
2022/10/05 06:06:20;;;;;;;10.00;6.80;;;13.60;99.90;;;;;;5016951;28;20438;-83
2022/10/05 06:09:01;;;;;;;8.43;7.33;;;13.60;99.90;;;;;;5019059;28;20454;-83
2022/10/05 06:11:34;;;;;;;9.67;7.07;;;13.60;99.90;;;;;;5014079;28;20488;-84
2022/10/05 06:14:08;;;;;;;9.20;7.30;;;13.50;99.90;;;;;;5016545;28;20471;-83
2022/10/05 06:16:52;;;;;;;8.40;7.30;;;13.60;99.90;;;;;;5018540;28;20478;-81
2022/10/05 06:19:22;;;;;;;8.37;6.90;;;13.80;99.90;;;;;;5013005;28;20465;-82
2022/10/05 06:21:58;;;;;;;8.70;6.93;;;13.90;99.90;;;;;;5004040;28;20461;-82
2022/10/05 06:24:34;;;;;;;7.57;6.77;;;13.90;99.90;;;;;;5024783;28;20456;-82
2022/10/05 06:27:24;;;;;;;7.50;6.70;;;14.00;99.90;;;;;;5021186;28;20884;-83
2022/10/05 06:30:13;;;;;;;9.00;6.50;;;14.00;99.90;;;;;;5008264;28;20459;-84
2022/10/05 06:32:49;;;;;;;7.13;6.43;;;14.10;99.90;;;;;;5005401;28;20446;-84
2022/10/05 06:35:24;;;;;;;7.00;6.10;;;14.20;99.90;;;;;;5022286;28;20476;-84
2022/10/05 06:38:13;;;;;;;7.50;5.10;;;14.30;99.90;;;;;;5016482;28;20592;-84
2022/10/05 06:40:48;;;;;;;9.60;6.60;;;14.20;99.90;;;;;;5011270;28;20453;-85
2022/10/05 06:43:42;;;;;;;7.80;6.20;;;14.10;99.90;;;;;;5027223;28;20948;-85
2022/10/05 06:46:32;;;;;;;7.37;6.10;;;14.20;99.90;;;;;;5005085;28;20453;-85
2022/10/05 06:49:35;;;;;;;7.20;5.90;;;14.20;99.90;;;;;;4991117;28;20948;-84
2022/10/05 06:52:25;;;;;;;8.63;6.37;;;14.10;99.90;;;;;;4998341;28;20471;-82
2022/10/05 06:55:14;;;;;;;8.53;6.43;;;14.30;99.90;;;;;;5018811;28;20474;-84
2022/10/05 06:58:01;;;;;;;7.67;6.23;;;14.20;99.90;;;;;;5014091;28;20493;-82
2022/10/05 07:00:53;;;;;;;7.00;6.27;;;14.30;99.90;;;;;;5017751;28;20431;-83
2022/10/05 07:03:25;;;;;;;7.93;6.30;;;14.20;99.90;;;;;;5011699;28;20466;-83
2022/10/05 07:06:10;;;;;;;7.77;6.63;;;14.20;99.90;;;;;;5014347;28;20501;-83
2022/10/05 07:08:48;;;;;;;9.90;6.83;;;14.20;99.90;;;;;;5014233;28;20454;-83
2022/10/05 07:11:20;;;;;;;6.50;5.67;;;14.20;99.90;;;;;;5001671;28;20454;-83
2022/10/05 07:14:22;;;;;;;8.43;7.20;;;14.20;99.90;;;;;;5012741;28;20481;-83
2022/10/05 07:16:56;;;;;;;6.87;5.87;;;14.30;99.90;;;;;;5006440;28;20512;-83
2022/10/05 07:19:31;;;;;;;8.43;7.23;;;14.30;99.90;;;;;;5020581;28;20481;-82
2022/10/05 07:22:50;;;;;;;7.63;6.40;;;14.30;99.90;;;;;;5016523;28;20458;-83
2022/10/05 07:26:08;;;;;;;7.67;6.97;;;14.30;99.90;;;;;;5015066;28;20485;-85
2022/10/05 07:28:53;;;;;;;8.30;6.33;;;14.30;99.90;;;;;;5002568;28;20514;-83
2022/10/05 07:31:38;;;;;;;7.77;6.57;;;14.50;99.90;;;;;;5004311;28;20450;-82
2022/10/05 07:34:41;;;;;;;7.57;5.80;;;14.50;99.90;;;;;;5023922;28;20504;-83
2022/10/05 07:40:38;;;;;;;11.30;6.53;;;14.60;99.90;;;;;;5016893;28;20443;-83
2022/10/05 07:43:37;;;;;;;8.37;6.53;;;14.60;99.90;;;;;;5005002;28;20449;-83
2022/10/05 07:46:45;;;;;;;7.87;6.83;;;14.80;99.90;;;;;;5025020;28;20485;-83
2022/10/05 07:49:45;;;;;;;7.33;6.50;;;14.80;99.90;;;;;;5020275;28;20482;-83
2022/10/05 07:52:37;;;;;;;11.23;8.00;;;14.80;99.90;;;;;;5020158;28;20454;-82
2022/10/05 07:55:19;;;;;;;8.30;6.83;;;14.80;99.90;;;;;;5035669;28;20455;-82
2022/10/05 07:58:17;;;;;;;10.63;7.50;;;14.70;99.90;;;;;;5012121;28;20485;-83
2022/10/05 08:01:07;;;;;;;7.90;7.10;;;14.70;99.90;;;;;;5037924;28;20442;-83
2022/10/05 08:03:44;;;;;;;10.80;7.10;;;14.70;99.90;;;;;;5012546;28;20434;-81
2022/10/05 08:06:35;;;;;;;8.37;6.60;;;14.80;99.90;;;;;;5030855;28;20449;-80
2022/10/05 08:09:26;;;;;;;9.10;7.73;;;14.80;99.90;;;;;;5025134;28;20438;-82
2022/10/05 08:12:06;;;;;;;10.70;7.30;;;14.60;99.90;;;;;;5033519;28;20528;-84
2022/10/05 08:14:48;;;;;;;8.37;6.67;;;14.90;99.90;;;;;;5027940;28;20470;-82
2022/10/05 08:17:38;;;;;;;8.47;7.17;;;15.00;99.90;;;;;;5021356;28;20450;-83
2022/10/05 08:20:25;;;;;;;8.57;7.53;;;15.00;99.90;;;;;;5029681;28;20546;-81
2022/10/05 08:23:31;;;;;;;9.00;7.30;;;15.00;99.90;;;;;;5024119;28;20473;-85
2022/10/05 08:26:43;;;;;;;10.33;7.57;;;15.20;99.90;;;;;;4993070;28;20484;-83
2022/10/05 08:29:28;;;;;;;8.83;7.20;;;15.20;99.90;;;;;;4992791;28;20458;-83
2022/10/05 08:32:00;;;;;;;8.70;7.57;;;15.10;99.90;;;;;;5012219;28;20466;-84
2022/10/05 08:34:44;;;;;;;7.73;6.93;;;15.30;99.90;;;;;;5022091;28;20484;-84
2022/10/05 08:37:19;;;;;;;8.10;6.97;;;15.50;99.90;;;;;;5018123;28;20463;-84
2022/10/05 08:40:08;;;;;;;9.80;7.60;;;15.60;99.90;;;;;;5026775;28;20466;-83
2022/10/05 08:42:44;;;;;;;9.30;7.30;;;15.40;99.90;;;;;;5016140;28;20459;-84
2022/10/05 08:45:29;;;;;;;8.60;7.10;;;15.50;99.90;;;;;;5032777;28;20461;-85
2022/10/05 08:48:17;;;;;;;7.80;7.00;;;15.40;99.90;;;;;;5024451;28;20423;-84
2022/10/05 08:51:12;;;;;;;7.90;6.67;;;15.70;99.90;;;;;;5021135;28;20431;-83
2022/10/05 08:54:13;;;;;;;7.90;6.97;;;15.90;99.90;;;;;;5023410;28;20427;-85
2022/10/05 08:56:47;;;;;;;7.70;6.90;;;16.00;99.90;;;;;;5032499;28;20446;-84
2022/10/05 08:59:47;;;;;;;8.07;7.23;;;16.00;99.90;;;;;;5030235;28;20470;-80
2022/10/05 09:02:48;;;;;;;7.03;6.33;;;16.00;99.90;;;;;;5026998;28;20445;-85
2022/10/05 09:05:43;;;;;;;6.30;5.70;;;16.20;99.90;;;;;;5005047;28;20475;-83
2022/10/05 09:08:21;;;;;;;6.43;5.83;;;16.40;99.90;;;;;;5023147;28;20455;-83
2022/10/05 09:11:09;;;;;;;5.90;5.30;;;16.50;99.90;;;;;;5022926;28;20458;-85
2022/10/05 09:14:18;;;;;;;7.13;6.43;;;16.40;99.90;;;;;;5028305;28;20449;-84
2022/10/05 09:16:51;;;;;;;6.97;5.00;;;16.20;99.90;;;;;;4982373;28;20498;-85
2022/10/05 09:20:07;;;;;;;6.90;6.20;;;16.80;99.90;;;;;;5014753;28;20506;-83
2022/10/05 09:22:37;;;;;;;6.17;5.57;;;16.90;99.90;;;;;;5021156;28;20465;-84
2022/10/05 09:25:41;;;;;;;6.63;5.50;;;17.00;99.90;;;;;;4999646;28;20481;-84
2022/10/05 09:28:23;;;;;;;9.00;5.80;;;17.00;99.90;;;;;;5013648;28;20434;-83
2022/10/05 09:31:01;;;;;;;6.37;5.30;;;17.00;99.90;;;;;;4993768;28;20446;-83
2022/10/05 09:33:50;;;;;;;5.30;4.80;;;16.90;99.90;;;;;;5000457;28;20454;-83
2022/10/05 09:36:26;;;;;;;7.20;5.37;;;17.10;99.90;;;;;;5019607;28;20454;-84
2022/10/05 09:38:58;;;;;;;7.00;5.03;;;17.40;99.90;;;;;;5008994;28;20477;-83
2022/10/05 09:41:57;;;;;;;8.43;4.97;;;17.40;99.90;;;;;;5029482;28;20542;-83
2022/10/05 09:44:48;;;;;;;5.67;4.87;;;17.60;99.90;;;;;;5006764;28;20486;-83
2022/10/05 09:47:43;;;;;;;5.73;4.90;;;17.90;99.90;;;;;;5014380;28;20474;-84
2022/10/05 09:50:48;;;;;;;5.00;4.50;;;18.00;99.50;;;;;;5012246;28;20463;-84
2022/10/05 09:53:47;;;;;;;5.13;4.63;;;18.00;99.60;;;;;;4995698;28;20496;-84
2022/10/05 09:56:41;;;;;;;5.27;4.77;;;18.60;98.80;;;;;;5019834;28;20477;-84
2022/10/05 09:59:28;;;;;;;4.70;4.30;;;18.90;98.20;;;;;;5023083;28;20890;-83
2022/10/05 10:02:06;;;;;;;5.10;4.60;;;19.10;97.50;;;;;;5015236;28;20459;-84
2022/10/05 10:04:42;;;;;;;4.30;3.90;;;19.30;97.40;;;;;;5003549;28;20929;-83
2022/10/05 10:07:20;;;;;;;4.40;4.00;;;19.80;95.90;;;;;;5017004;28;20461;-84
2022/10/05 10:10:17;;;;;;;4.53;3.20;;;19.90;95.40;;;;;;5009486;28;20470;-83
2022/10/05 10:13:12;;;;;;;4.43;3.87;;;20.00;95.10;;;;;;5001514;28;20465;-84
2022/10/05 10:15:56;;;;;;;3.77;3.40;;;19.70;95.40;;;;;;5020982;28;20493;-83
2022/10/05 10:18:26;;;;;;;3.70;3.33;;;19.80;95.20;;;;;;5019693;28;20481;-83
2022/10/05 10:21:15;;;;;;;3.57;3.00;;;19.70;95.20;;;;;;5012722;28;20477;-83
2022/10/05 10:23:48;;;;;;;3.23;3.03;;;19.70;95.60;;;;;;5026666;28;20446;-85
2022/10/05 10:26:31;;;;;;;3.93;3.43;;;19.60;95.60;;;;;;5023846;28;20503;-83
2022/10/05 10:29:23;;;;;;;3.17;2.87;;;19.30;96.20;;;;;;5020363;28;20482;-83
2022/10/05 10:32:09;;;;;;;4.50;2.90;;;19.60;95.20;;;;;;5014120;28;20446;-82
2022/10/05 10:34:54;;;;;;;3.30;3.00;;;19.70;95.30;;;;;;5021065;28;20484;-82
2022/10/05 10:37:38;;;;;;;6.13;3.57;;;19.60;95.40;;;;;;5027065;28;20455;-84
2022/10/05 10:40:20;;;;;;;3.00;2.80;;;19.70;95.30;;;;;;5003445;28;21014;-84
2022/10/05 10:43:21;;;;;;;5.20;4.00;;;19.60;95.40;;;;;;5018462;28;21026;-82
2022/10/05 10:46:18;;;;;;;4.47;3.90;;;19.20;96.20;;;;;;5010541;28;20470;-81
2022/10/05 10:49:14;;;;;;;3.83;3.47;;;19.10;97.00;;;;;;5005827;28;20459;-82
2022/10/05 10:52:10;;;;;;;3.27;2.97;;;19.30;96.80;;;;;;5019765;28;20456;-85
2022/10/05 10:55:03;;;;;;;4.40;3.80;;;19.50;96.50;;;;;;5011081;28;20478;-82
2022/10/05 10:57:50;;;;;;;3.57;3.27;;;19.50;96.20;;;;;;5008122;28;20505;-83
2022/10/05 11:00:39;;;;;;;4.67;3.90;;;19.20;97.00;;;;;;5016959;28;20473;-82
2022/10/05 11:06:49;;;;;;;4.10;3.20;;;18.90;97.70;;;;;;5082204;23;20503;-81
2022/10/05 11:09:33;;;;;;;3.37;3.13;;;19.10;97.80;;;;;;5035734;28;20453;-81
2022/10/05 11:12:52;;;;;;;4.50;3.30;;;19.10;97.60;;;;;;5019689;28;20490;-81
2022/10/05 11:22:53;;;;;;;3.97;2.87;;;20.10;95.10;;;;;;4942693;29;20869;-81
2022/10/05 11:25:47;;;;;;;2.90;2.53;;;20.20;95.10;;;;;;5001928;28;20478;-84
2022/10/05 11:28:55;;;;;;;2.47;2.27;;;20.00;95.20;;;;;;4991210;28;20791;-82
2022/10/05 11:31:59;;;;;;;5.43;2.50;;;20.10;94.60;;;;;;5024533;28;20450;-82
2022/10/05 11:34:35;;;;;;;2.53;2.10;;;20.20;93.90;;;;;;5003529;28;20470;-82
2022/10/05 11:37:30;;;;;;;2.07;1.97;;;20.50;92.40;;;;;;5015100;28;20484;-84
2022/10/05 11:40:09;;;;;;;2.10;1.90;;;20.70;91.60;;;;;;4997672;28;20482;-82
2022/10/05 11:43:11;;;;;;;2.90;1.80;;;21.00;90.50;;;;;;5013438;28;20481;-83
2022/10/05 11:46:04;;;;;;;1.80;1.70;;;21.00;90.20;;;;;;5523040;23;20507;-84
2022/10/05 11:48:52;;;;;;;2.47;1.93;;;21.10;89.90;;;;;;4981773;28;20471;-84
2022/10/05 11:51:39;;;;;;;2.00;1.87;;;21.20;89.40;;;;;;4978581;28;20502;-81
2022/10/05 11:54:32;;;;;;;2.03;1.70;;;21.00;89.90;;;;;;5001284;28;20978;-84
2022/10/05 11:57:27;;;;;;;1.80;1.70;;;21.10;89.40;;;;;;5007075;28;20455;-86
2022/10/05 12:00:11;;;;;;;2.23;2.03;;;21.30;88.60;;;;;;5001270;28;20479;-84
2022/10/05 12:02:52;;;;;;;1.30;1.20;;;21.80;87.50;;;;;;4999043;28;20552;-83
2022/10/05 12:06:27;;;;;;;;;;;;;;;;;;;;;
2022/10/05 12:19:20;;;;;;;2.07;1.60;;;24.00;75.70;;;;;;5015745;23;20908;-83
2022/10/05 12:21:55;;;;;;;1.60;1.50;;;23.80;76.40;;;;;;4998730;28;20530;-83
2022/10/05 12:30:10;;;;;;;1.70;1.60;;;23.90;75.40;;;;;;5085643;22;20498;-82
2022/10/05 12:32:45;;;;;;;1.93;1.80;;;23.90;74.70;;;;;;5017277;28;20799;-83
2022/10/05 12:35:27;;;;;;;2.80;1.50;;;23.90;74.90;;;;;;5014523;28;20482;-82
2022/10/05 12:38:33;;;;;;;1.90;1.70;;;24.30;73.40;;;;;;5010756;28;20438;-82
2022/10/05 12:41:28;;;;;;;1.50;1.40;;;24.60;72.00;;;;;;5023047;28;20442;-82
2022/10/05 12:44:27;;;;;;;3.33;1.50;;;24.60;71.30;;;;;;5024002;28;20474;-81
2022/10/05 12:46:56;;;;;;;2.30;1.27;;;24.50;70.60;;;;;;5033118;28;20434;-82
2022/10/05 12:49:53;;;;;;;1.90;1.70;;;24.30;71.00;;;;;;5032323;28;20601;-83
2022/10/05 12:52:55;;;;;;;1.50;1.40;;;24.20;71.20;;;;;;4991820;28;20819;-83
2022/10/05 12:55:38;;;;;;;1.80;1.70;;;24.30;71.60;;;;;;4979954;28;20472;-83
2022/10/05 12:58:17;;;;;;;1.87;1.77;;;24.50;71.30;;;;;;5032990;28;20443;-83
2022/10/05 13:01:01;;;;;;;1.80;1.70;;;24.40;71.50;;;;;;4998089;28;20439;-84
2022/10/05 13:03:44;;;;;;;2.40;1.53;;;24.20;71.70;;;;;;5033145;28;20454;-82
2022/10/05 13:06:14;;;;;;;2.00;1.90;;;24.20;71.80;;;;;;5016433;28;20426;-83
2022/10/05 13:08:59;;;;;;;3.70;1.87;;;24.00;72.20;;;;;;5026118;28;20454;-83
2022/10/05 13:11:45;;;;;;;2.07;1.87;;;24.20;72.40;;;;;;5021758;28;20475;-83
2022/10/05 13:14:34;;;;;;;1.53;1.43;;;24.30;72.00;;;;;;5006520;28;20473;-82
2022/10/05 13:17:30;;;;;;;1.50;1.40;;;24.20;72.40;;;;;;5029466;28;20450;-83
2022/10/05 13:20:42;;;;;;;2.17;1.50;;;24.10;73.40;;;;;;5017543;28;21072;-82
2022/10/05 13:23:48;;;;;;;1.77;1.60;;;24.00;74.30;;;;;;4997134;28;20446;-83
2022/10/05 13:26:35;;;;;;;2.07;1.43;;;24.00;74.70;;;;;;4968419;28;20604;-83
2022/10/05 13:29:46;;;;;;;1.60;1.50;;;24.10;74.20;;;;;;5018662;28;20498;-84
2022/10/05 13:32:39;;;;;;;2.00;1.90;;;24.40;74.00;;;;;;4996574;28;20458;-82
2022/10/05 13:35:15;;;;;;;1.50;1.40;;;24.60;72.70;;;;;;5007074;28;20480;-82
2022/10/05 13:38:16;;;;;;;1.60;1.50;;;24.70;72.60;;;;;;5008926;28;20469;-81
2022/10/05 13:41:26;;;;;;;2.00;1.90;;;24.80;71.30;;;;;;5021787;28;20478;-81
2022/10/05 13:44:29;;;;;;;1.70;1.60;;;24.60;72.50;;;;;;5023762;28;20475;-82
2022/10/05 13:47:31;;;;;;;2.00;1.50;;;24.70;72.10;;;;;;4996116;28;20441;-83
2022/10/05 13:50:25;;;;;;;1.80;1.70;;;24.40;72.70;;;;;;4925644;28;20450;-83
2022/10/05 13:52:57;;;;;;;1.90;1.80;;;24.00;73.20;;;;;;5036004;28;20531;-82
2022/10/05 13:55:35;;;;;;;1.80;1.70;;;23.70;74.50;;;;;;5026597;28;20493;-83
2022/10/05 13:58:37;;;;;;;2.43;1.87;;;23.40;75.20;;;;;;5021499;28;20450;-82
2022/10/05 14:01:24;;;;;;;1.90;1.80;;;23.20;76.00;;;;;;5017662;28;20488;-83
2022/10/05 14:04:17;;;;;;;1.70;1.60;;;22.90;77.00;;;;;;5018725;28;20540;-83
2022/10/05 14:06:48;;;;;;;2.07;1.97;;;22.70;77.70;;;;;;5026778;28;20461;-83
2022/10/05 14:09:18;;;;;;;1.83;1.73;;;22.70;78.50;;;;;;5029981;28;20458;-83
2022/10/05 14:11:54;;;;;;;1.97;1.87;;;22.60;79.30;;;;;;5031195;28;20452;-81
2022/10/05 14:14:51;;;;;;;1.60;1.50;;;22.60;80.00;;;;;;5134984;23;20497;-82
2022/10/05 14:18:09;;;;;;;1.80;1.60;;;22.70;80.30;;;;;;5017694;28;20454;-83
2022/10/05 14:22:01;;;;;;;1.83;1.73;;;22.50;81.10;;;;;;4979551;28;20507;-83
2022/10/05 14:25:02;;;;;;;4.33;2.13;;;22.40;82.10;;;;;;5139253;23;21701;-83
2022/10/05 14:31:45;;;;;;;1.93;1.80;;;22.40;83.20;;;;;;4929133;29;20442;-83
2022/10/05 14:45:32;;;;;;;2.53;1.83;;;22.30;85.30;;;;;;5428334;22;20504;-80
2022/10/05 14:52:33;;;;;;;2.00;1.90;;;22.20;85.40;;;;;;4957084;29;20453;-82
2022/10/05 14:55:32;;;;;;;2.10;1.80;;;22.10;86.30;;;;;;4934185;29;20521;-83
2022/10/05 14:58:33;;;;;;;2.03;1.67;;;22.10;86.80;;;;;;4912544;29;20498;-82
2022/10/05 15:01:22;;;;;;;1.93;1.83;;;22.10;86.90;;;;;;4926253;29;20899;-83
2022/10/05 15:03:55;;;;;;;2.40;1.80;;;22.10;87.30;;;;;;4924842;29;20514;-83
2022/10/05 15:06:44;;;;;;;2.00;1.80;;;22.10;87.60;;;;;;4927253;29;20460;-83
2022/10/05 15:09:29;;;;;;;4.43;1.80;;;22.20;87.70;;;;;;4935828;29;20881;-83
2022/10/05 15:12:02;;;;;;;2.10;1.90;;;22.10;88.10;;;;;;4929288;29;20490;-84
2022/10/05 15:14:37;;;;;;;1.90;1.73;;;22.20;88.30;;;;;;4931856;29;20466;-84